Time;durP1;ratioP1;P1;durP2;ratioP2;P2;SDS_P1;SDS_P2;PMS_P1;PMS_P2;Temp;Humidity;BMP_temperature;BMP_pressure;BME280_temperature;BME280_humidity;BME280_pressure;Samples;Min_cycle;Max_cycle;Signal;HPM_P1;HPM_P2
2023/05/24 00:01:56;;;;;;;;;;;;;;;15.96;62.87;100857.53;4970229;28;2232;-74
2023/05/24 00:04:23;;;;;;;;;;;;;;;15.95;62.83;100856.72;4954796;28;2253;-74
2023/05/24 00:06:50;;;;;;;;;;;;;;;15.95;62.85;100856.72;4952501;28;1993;-74
2023/05/24 00:09:17;;;;;;;;;;;;;;;15.94;62.84;100860.47;4967854;28;1804;-74
2023/05/24 00:11:43;;;;;;;;;;;;;;;15.93;62.76;100850.69;4967957;28;2026;-74
2023/05/24 00:14:10;;;;;;;;;;;;;;;15.92;62.79;100865.34;4967805;28;4085;-74
2023/05/24 00:16:36;;;;;;;;;;;;;;;15.90;62.72;100857.44;4967805;28;2620;-75
2023/05/24 00:19:03;;;;;;;;;;;;;;;15.91;62.81;100863.69;4969509;28;2656;-73
2023/05/24 00:21:30;;;;;;;;;;;;;;;15.90;62.72;100868.31;4972329;28;2561;-72
2023/05/24 00:23:57;;;;;;;;;;;;;;;15.90;62.89;100867.50;4966542;28;2021;-74
2023/05/24 00:26:24;;;;;;;;;;;;;;;15.89;62.78;100863.13;4969432;28;1906;-74
2023/05/24 00:28:50;;;;;;;;;;;;;;;15.88;62.81;100864.19;4967035;28;2108;-75
2023/05/24 00:31:17;;;;;;;;;;;;;;;15.88;62.83;100864.19;4968085;28;2731;-76
2023/05/24 00:33:43;;;;;;;;;;;;;;;15.86;62.75;100861.75;4970381;28;2025;-73
2023/05/24 00:36:10;;;;;;;;;;;;;;;15.86;62.71;100867.16;4969307;28;1549;-73
2023/05/24 00:38:37;;;;;;;;;;;;;;;15.85;62.74;100861.97;4961833;28;2167;-73
2023/05/24 00:41:03;;;;;;;;;;;;;;;15.84;62.65;100863.88;4958081;28;2112;-74
2023/05/24 00:43:30;;;;;;;;;;;;;;;15.84;62.68;100854.91;4971664;28;1607;-74
2023/05/24 00:45:56;;;;;;;;;;;;;;;15.83;62.61;100851.38;4966014;28;2620;-73
2023/05/24 00:48:27;;;;;;;;;;;;;;;15.82;62.77;100863.28;4962323;28;4612;-74
2023/05/24 00:50:54;;;;;;;;;;;;;;;15.81;62.63;100864.38;4969753;28;1834;-74
2023/05/24 00:53:20;;;;;;;;;;;;;;;15.81;62.70;100858.94;4949841;28;3729;-74
2023/05/24 00:55:47;;;;;;;;;;;;;;;15.80;62.53;100854.59;4969340;28;2047;-74
2023/05/24 00:58:13;;;;;;;;;;;;;;;15.80;62.66;100860.00;4968867;28;1880;-74
2023/05/24 01:00:40;;;;;;;;;;;;;;;15.78;62.67;100856.72;4950939;28;2091;-74
2023/05/24 01:03:07;;;;;;;;;;;;;;;15.79;62.63;100857.53;4971575;28;2114;-74
2023/05/24 01:05:33;;;;;;;;;;;;;;;15.77;62.57;100857.78;4968772;28;4514;-74
2023/05/24 01:08:01;;;;;;;;;;;;;;;15.77;62.58;100860.50;4971487;28;1091;-75
2023/05/24 01:10:28;;;;;;;;;;;;;;;15.77;62.57;100871.38;4970045;28;2095;-75
2023/05/24 01:12:55;;;;;;;;;;;;;;;15.78;62.54;100872.19;4970071;28;2154;-74
2023/05/24 01:15:21;;;;;;;;;;;;;;;15.76;62.48;100866.16;4968369;28;2789;-74
2023/05/24 01:17:48;;;;;;;;;;;;;;;15.73;62.50;100867.47;4966551;28;3715;-74
2023/05/24 01:20:14;;;;;;;;;;;;;;;15.73;62.53;100861.22;4968554;28;1962;-74
2023/05/24 01:22:41;;;;;;;;;;;;;;;15.72;62.55;100849.56;4970125;28;2620;-74
2023/05/24 01:25:08;;;;;;;;;;;;;;;15.71;62.50;100856.06;4968229;28;1973;-75
2023/05/24 01:27:34;;;;;;;;;;;;;;;15.81;62.24;100855.41;4953756;28;2111;-74
2023/05/24 01:30:01;;;;;;;;;;;;;;;15.83;62.11;100855.97;4969102;28;1511;-74
2023/05/24 01:32:27;;;;;;;;;;;;;;;15.78;62.21;100864.84;4965096;28;2055;-75
2023/05/24 01:34:54;;;;;;;;;;;;;;;15.73;62.28;100856.63;4953579;28;2688;-74
2023/05/24 01:37:20;;;;;;;;;;;;;;;15.70;62.42;100853.59;4952339;28;1648;-74
2023/05/24 01:39:47;;;;;;;;;;;;;;;15.70;62.33;100857.13;4969174;28;1970;-74
2023/05/24 01:42:14;;;;;;;;;;;;;;;15.71;62.20;100857.97;4949516;28;2448;-75
2023/05/24 01:44:40;;;;;;;;;;;;;;;15.87;61.84;100852.50;4969645;28;1663;-75
2023/05/24 01:47:07;;;;;;;;;;;;;;;16.10;60.92;100850.69;4964474;28;2070;-74
2023/05/24 01:49:33;;;;;;;;;;;;;;;15.92;61.49;100859.13;4967983;28;1737;-74
2023/05/24 01:52:00;;;;;;;;;;;;;;;16.12;60.89;100862.16;4968201;28;2094;-75
2023/05/24 01:54:26;;;;;;;;;;;;;;;15.93;61.35;100861.56;4970690;28;1572;-74
2023/05/24 01:56:53;;;;;;;;;;;;;;;15.89;61.47;100863.13;4965285;28;1984;-74
2023/05/24 01:59:20;;;;;;;;;;;;;;;15.94;61.21;100863.19;4951691;28;1962;-74
2023/05/24 02:01:46;;;;;;;;;;;;;;;15.88;61.35;100856.88;4951442;28;2152;-74
2023/05/24 02:04:13;;;;;;;;;;;;;;;16.18;60.51;100854.84;4968503;28;1622;-75
2023/05/24 02:06:39;;;;;;;;;;;;;;;16.02;60.98;100859.25;4970596;28;1950;-74
2023/05/24 02:09:06;;;;;;;;;;;;;;;16.18;60.51;100855.72;4966201;28;2055;-75
2023/05/24 02:11:32;;;;;;;;;;;;;;;16.18;60.24;100857.56;4952639;28;1869;-75
2023/05/24 02:13:59;;;;;;;;;;;;;;;15.97;60.89;100859.16;4950543;28;1994;-75
2023/05/24 02:16:29;;;;;;;;;;;;;;;15.97;60.84;100853.72;4969601;28;1818;-75
2023/05/24 02:18:56;;;;;;;;;;;;;;;16.12;60.47;100854.81;4967062;28;2103;-73
2023/05/24 02:21:23;;;;;;;;;;;;;;;15.95;60.86;100855.91;4953615;28;1592;-74
2023/05/24 02:23:49;;;;;;;;;;;;;;;16.17;60.31;100858.66;4971384;28;1905;-74
2023/05/24 02:26:17;;;;;;;;;;;;;;;16.19;60.22;100864.69;4968155;28;2142;-74
2023/05/24 02:28:43;;;;;;;;;;;;;;;16.07;60.50;100873.75;4971585;28;2106;-74
2023/05/24 02:31:10;;;;;;;;;;;;;;;16.08;60.31;100867.22;4955000;28;2189;-73
2023/05/24 02:33:36;;;;;;;;;;;;;;;15.89;60.77;100866.69;4970913;28;1802;-74
2023/05/24 02:36:03;;;;;;;;;;;;;;;15.90;60.81;100871.03;4972514;28;2042;-74
2023/05/24 02:38:30;;;;;;;;;;;;;;;15.83;61.08;100872.28;4954013;28;1999;-75
2023/05/24 02:40:57;;;;;;;;;;;;;;;15.87;60.93;100868.00;4974943;28;1881;-74
2023/05/24 02:43:23;;;;;;;;;;;;;;;15.84;60.91;100863.06;4956788;28;2259;-74
2023/05/24 02:45:50;;;;;;;;;;;;;;;16.00;60.48;100858.66;4971353;28;2183;-75
2023/05/24 02:48:17;;;;;;;;;;;;;;;15.90;60.60;100859.34;4973145;28;2355;-75
2023/05/24 02:50:43;;;;;;;;;;;;;;;15.97;60.48;100856.44;4954599;28;2466;-74
2023/05/24 02:53:10;;;;;;;;;;;;;;;15.78;61.10;100856.72;4971298;28;2150;-74
2023/05/24 02:55:37;;;;;;;;;;;;;;;15.71;61.13;100856.06;4973175;28;2056;-74
2023/05/24 02:58:04;;;;;;;;;;;;;;;15.67;61.19;100860.28;4970838;28;2238;-74
2023/05/24 03:00:30;;;;;;;;;;;;;;;15.81;60.85;100860.81;4972896;28;2357;-75
2023/05/24 03:03:01;;;;;;;;;;;;;;;15.75;61.06;100865.34;4973334;28;2004;-75
2023/05/24 03:05:28;;;;;;;;;;;;;;;15.67;61.24;100863.84;4972940;28;1907;-75
2023/05/24 03:07:55;;;;;;;;;;;;;;;15.75;60.90;100854.50;4966729;28;2263;-74
2023/05/24 03:10:22;;;;;;;;;;;;;;;15.59;61.46;100855.28;4974207;28;1025;-74
2023/05/24 03:12:48;;;;;;;;;;;;;;;15.49;61.75;100861.34;4957316;28;2191;-73
2023/05/24 03:15:15;;;;;;;;;;;;;;;15.61;61.26;100858.56;4972748;28;2147;-74
2023/05/24 03:17:41;;;;;;;;;;;;;;;15.61;61.31;100864.81;4968280;28;4368;-74
2023/05/24 03:20:10;;;;;;;;;;;;;;;15.56;61.45;100864.75;4973102;28;3738;-73
2023/05/24 03:22:36;;;;;;;;;;;;;;;15.67;61.02;100868.44;4971185;28;3832;-74
2023/05/24 03:25:03;;;;;;;;;;;;;;;15.74;60.78;100862.91;4954715;28;2554;-76
2023/05/24 03:27:30;;;;;;;;;;;;;;;15.65;61.11;100865.97;4953792;28;2172;-73
2023/05/24 03:29:56;;;;;;;;;;;;;;;15.63;60.98;100873.53;4971268;28;2108;-73
2023/05/24 03:32:23;;;;;;;;;;;;;;;15.85;60.33;100880.97;4954951;28;2116;-75
2023/05/24 03:34:49;;;;;;;;;;;;;;;15.74;60.84;100880.00;4973743;28;3872;-74
2023/05/24 03:37:16;;;;;;;;;;;;;;;15.57;61.10;100868.28;4959508;28;2083;-74
2023/05/24 03:39:42;;;;;;;;;;;;;;;15.64;60.85;100866.22;4955008;28;1757;-74
2023/05/24 03:42:09;;;;;;;;;;;;;;;15.80;60.38;100859.19;4940477;28;2000;-74
2023/05/24 03:44:35;;;;;;;;;;;;;;;15.61;60.91;100859.38;4942610;28;1946;-74
2023/05/24 03:47:02;;;;;;;;;;;;;;;15.49;61.17;100842.34;4936199;28;4063;-74
2023/05/24 03:49:29;;;;;;;;;;;;;;;15.67;60.82;100846.72;4955828;28;3321;-74
2023/05/24 03:51:55;;;;;;;;;;;;;;;15.53;61.04;100846.22;4964928;28;2724;-75
2023/05/24 03:54:22;;;;;;;;;;;;;;;15.66;60.55;100836.94;4960784;28;1950;-75
2023/05/24 03:56:48;;;;;;;;;;;;;;;15.64;60.57;100852.63;4954886;28;1937;-75
2023/05/24 03:59:15;;;;;;;;;;;;;;;15.41;61.34;100848.16;4953430;28;1662;-75
2023/05/24 04:01:41;;;;;;;;;;;;;;;15.34;61.57;100836.66;4954266;28;1842;-76
2023/05/24 04:04:08;;;;;;;;;;;;;;;15.39;61.31;100840.28;4948518;28;2163;-75
2023/05/24 04:06:35;;;;;;;;;;;;;;;15.49;60.98;100841.53;4946270;28;2088;-74
2023/05/24 04:09:03;;;;;;;;;;;;;;;15.45;61.05;100835.78;4935398;28;2015;-75
2023/05/24 04:11:31;;;;;;;;;;;;;;;15.49;60.81;100828.78;4941377;28;2048;-75
2023/05/24 04:13:59;;;;;;;;;;;;;;;15.49;60.75;100822.53;4948278;28;2074;-76
2023/05/24 04:16:26;;;;;;;;;;;;;;;15.51;60.84;100823.13;4935813;28;2069;-75
2023/05/24 04:18:52;;;;;;;;;;;;;;;15.63;60.42;100827.38;4937552;28;1884;-75
2023/05/24 04:21:19;;;;;;;;;;;;;;;15.58;60.50;100830.00;4952003;28;1709;-74
2023/05/24 04:23:45;;;;;;;;;;;;;;;15.45;60.74;100833.88;4949234;28;2067;-74
2023/05/24 04:26:12;;;;;;;;;;;;;;;15.48;60.73;100838.00;4941360;28;2110;-76
2023/05/24 04:28:38;;;;;;;;;;;;;;;15.48;60.68;100840.72;4953891;28;1609;-74
2023/05/24 04:31:06;;;;;;;;;;;;;;;15.58;60.46;100848.19;4961165;28;2183;-76
2023/05/24 04:33:33;;;;;;;;;;;;;;;15.33;61.15;100854.84;4953153;28;1899;-77
2023/05/24 04:36:00;;;;;;;;;;;;;;;15.32;61.14;100861.31;4941387;28;1961;-74
2023/05/24 04:38:28;;;;;;;;;;;;;;;14.93;61.00;100784.38;4953169;28;1907;-75
2023/05/24 04:40:55;;;;;;;;;;;;;;;15.42;60.81;100871.53;4950601;28;2014;-73
2023/05/24 04:43:21;;;;;;;;;;;;;;;15.38;60.86;100865.78;4938500;28;1833;-74
2023/05/24 04:45:48;;;;;;;;;;;;;;;15.45;60.69;100865.63;4947274;28;2317;-74
2023/05/24 04:48:14;;;;;;;;;;;;;;;15.27;61.26;100872.09;4931765;28;1761;-75
2023/05/24 04:50:41;;;;;;;;;;;;;;;15.27;61.23;100869.38;4936004;28;1870;-75
2023/05/24 04:53:07;;;;;;;;;;;;;;;15.24;61.38;100874.47;4957340;28;1985;-75
2023/05/24 04:55:34;;;;;;;;;;;;;;;15.23;61.30;100868.19;4953042;28;2145;-75
2023/05/24 04:58:01;;;;;;;;;;;;;;;15.14;61.56;100873.19;4968629;28;2137;-75
2023/05/24 05:00:28;;;;;;;;;;;;;;;15.24;61.20;100863.63;4954090;28;2153;-74
2023/05/24 05:02:55;;;;;;;;;;;;;;;15.31;60.89;100862.38;4947744;28;2323;-75
2023/05/24 05:05:22;;;;;;;;;;;;;;;15.25;61.10;100860.66;4952412;28;2151;-75
2023/05/24 05:07:48;;;;;;;;;;;;;;;15.16;61.39;100864.81;4969048;28;2099;-73
2023/05/24 05:10:15;;;;;;;;;;;;;;;15.13;61.44;100866.13;4971226;28;1833;-73
2023/05/24 05:12:42;;;;;;;;;;;;;;;15.18;61.27;100866.22;4969274;28;2155;-73
2023/05/24 05:15:08;;;;;;;;;;;;;;;15.16;61.34;100859.41;4970662;28;2230;-74
2023/05/24 05:17:35;;;;;;;;;;;;;;;15.26;61.01;100850.63;4951395;29;2129;-74
2023/05/24 05:20:01;;;;;;;;;;;;;;;15.16;61.15;100849.38;4931865;29;2020;-74
2023/05/24 05:22:28;;;;;;;;;;;;;;;15.11;61.32;100851.97;4947363;28;1871;-76
2023/05/24 05:24:54;;;;;;;;;;;;;;;15.08;61.35;100841.59;4951618;29;1032;-75
2023/05/24 05:27:21;;;;;;;;;;;;;;;15.07;61.42;100831.00;4949091;28;2245;-73
2023/05/24 05:29:47;;;;;;;;;;;;;;;15.04;61.60;100834.22;4952382;29;1084;-75
2023/05/24 05:32:14;;;;;;;;;;;;;;;15.11;61.38;100834.88;4950841;28;2222;-74
2023/05/24 05:34:40;;;;;;;;;;;;;;;15.07;61.51;100839.16;4934510;29;2170;-75
2023/05/24 05:37:07;;;;;;;;;;;;;;;15.05;61.65;100844.81;4951498;28;1966;-76
2023/05/24 05:39:33;;;;;;;;;;;;;;;15.05;61.36;100841.28;4952131;29;1611;-75
2023/05/24 05:42:01;;;;;;;;;;;;;;;15.24;60.86;100842.72;4933002;29;2118;-73
2023/05/24 05:44:27;;;;;;;;;;;;;;;15.10;61.17;100841.38;4933574;29;1643;-77
2023/05/24 05:46:54;;;;;;;;;;;;;;;15.07;61.17;100841.88;4933071;29;3487;-74
2023/05/24 05:49:20;;;;;;;;;;;;;;;15.12;61.18;100831.13;4935103;28;5609;-74
2023/05/24 05:51:47;;;;;;;;;;;;;;;15.04;61.23;100829.59;4938784;28;1696;-74
2023/05/24 05:54:17;;;;;;;;;;;;;;;15.05;61.38;100849.41;4926782;28;3617;-74
2023/05/24 05:56:46;;;;;;;;;;;;;;;15.13;60.89;100843.59;4925263;29;2071;-75
2023/05/24 05:59:13;;;;;;;;;;;;;;;15.11;61.11;100849.25;4937878;29;1778;-75
2023/05/24 06:01:39;;;;;;;;;;;;;;;15.05;61.24;100850.22;4935200;28;2107;-76
2023/05/24 06:04:06;;;;;;;;;;;;;;;15.08;61.16;100851.63;4937281;29;2219;-76
2023/05/24 06:06:33;;;;;;;;;;;;;;;14.82;61.20;100815.06;4939721;28;3590;-74
2023/05/24 06:08:59;;;;;;;;;;;;;;;15.07;61.13;100847.28;4925263;28;2081;-75
2023/05/24 06:11:26;;;;;;;;;;;;;;;15.19;60.77;100848.88;4934914;29;2093;-74
2023/05/24 06:13:53;;;;;;;;;;;;;;;15.05;61.02;100852.94;4939052;29;2147;-76
2023/05/24 06:16:19;;;;;;;;;;;;;;;15.05;61.17;100852.13;4943472;28;3527;-75
2023/05/24 06:18:46;;;;;;;;;;;;;;;15.02;61.13;100848.00;4956720;28;2697;-77
2023/05/24 06:21:13;;;;;;;;;;;;;;;15.14;60.87;100861.53;4960440;28;2209;-74
2023/05/24 06:23:39;;;;;;;;;;;;;;;15.13;60.73;100849.84;4955753;28;2454;-76
2023/05/24 06:26:07;;;;;;;;;;;;;;;15.01;61.05;100849.06;4956808;28;2361;-76
2023/05/24 06:28:34;;;;;;;;;;;;;;;15.01;61.26;100845.56;4954834;28;2140;-73
2023/05/24 06:31:00;;;;;;;;;;;;;;;15.01;61.22;100835.53;4976834;28;2136;-75
2023/05/24 06:33:27;;;;;;;;;;;;;;;15.05;60.89;100839.38;4975627;28;1312;-76
2023/05/24 06:35:53;;;;;;;;;;;;;;;15.21;60.52;100844.03;4959762;28;2852;-76
2023/05/24 06:38:20;;;;;;;;;;;;;;;15.11;60.65;100832.16;4967314;28;2016;-75
2023/05/24 06:40:47;;;;;;;;;;;;;;;15.01;61.16;100835.53;4959703;28;1649;-76
2023/05/24 06:43:13;;;;;;;;;;;;;;;15.05;61.00;100828.53;4976024;28;2059;-75
2023/05/24 06:45:40;;;;;;;;;;;;;;;15.01;61.13;100832.81;4966966;28;2453;-75
2023/05/24 06:48:06;;;;;;;;;;;;;;;15.06;60.92;100829.34;4963538;28;2036;-75
2023/05/24 06:50:35;;;;;;;;;;;;;;;14.99;60.98;100829.50;4973041;28;2179;-75
2023/05/24 06:53:01;;;;;;;;;;;;;;;14.99;61.20;100832.22;4952506;28;1622;-76
2023/05/24 06:55:28;;;;;;;;;;;;;;;14.99;61.12;100841.16;4960614;28;1656;-75
2023/05/24 06:57:54;;;;;;;;;;;;;;;14.97;61.24;100854.16;4944042;28;2107;-76
2023/05/24 07:00:21;;;;;;;;;;;;;;;14.99;61.20;100843.88;4956436;28;4064;-75
2023/05/24 07:02:47;;;;;;;;;;;;;;;14.98;61.21;100841.44;4961351;28;3449;-76
2023/05/24 07:05:14;;;;;;;;;;;;;;;14.97;61.09;100848.75;4956250;28;1872;-77
2023/05/24 07:07:41;;;;;;;;;;;;;;;14.97;61.10;100851.47;4940710;28;2566;-75
2023/05/24 07:10:08;;;;;;;;;;;;;;;14.97;61.16;100862.31;4952457;28;1717;-74
2023/05/24 07:12:34;;;;;;;;;;;;;;;14.97;61.09;100856.88;4955441;28;1721;-75
2023/05/24 07:15:01;;;;;;;;;;;;;;;14.96;61.12;100849.78;4941561;28;1647;-74
2023/05/24 07:17:27;;;;;;;;;;;;;;;14.98;61.05;100855.81;4954651;28;1720;-74
2023/05/24 07:19:54;;;;;;;;;;;;;;;14.96;61.14;100855.22;4936757;28;2318;-75
2023/05/24 07:22:21;;;;;;;;;;;;;;;14.97;61.14;100840.59;4962326;28;1586;-73
2023/05/24 07:24:48;;;;;;;;;;;;;;;14.97;61.01;100839.75;4954031;28;1743;-74
2023/05/24 07:27:14;;;;;;;;;;;;;;;14.97;61.24;100835.19;4941486;28;1907;-75
2023/05/24 07:29:41;;;;;;;;;;;;;;;14.96;61.06;100822.66;4941253;28;1670;-75
2023/05/24 07:32:07;;;;;;;;;;;;;;;14.97;61.14;100826.19;4941535;28;1692;-75
2023/05/24 07:34:34;;;;;;;;;;;;;;;14.97;61.10;100828.91;4938025;28;1984;-76
2023/05/24 07:37:00;;;;;;;;;;;;;;;14.97;61.13;100828.91;4952225;28;1851;-75
2023/05/24 07:39:27;;;;;;;;;;;;;;;14.98;61.19;100825.97;4953539;28;2104;-74
2023/05/24 07:41:54;;;;;;;;;;;;;;;15.35;59.95;100833.72;4950707;28;1932;-75
2023/05/24 07:44:21;;;;;;;;;;;;;;;15.13;60.49;100833.56;4971791;28;991;-74
2023/05/24 07:46:47;;;;;;;;;;;;;;;15.05;60.80;100833.97;4960979;28;1972;-75
2023/05/24 07:49:14;;;;;;;;;;;;;;;15.02;60.91;100823.59;4955523;28;1832;-75
2023/05/24 07:51:40;;;;;;;;;;;;;;;15.00;61.28;100836.59;4953516;28;1709;-76
2023/05/24 07:54:07;;;;;;;;;;;;;;;14.99;61.02;100838.47;4953001;28;1682;-76
2023/05/24 07:56:33;;;;;;;;;;;;;;;14.53;61.18;100747.31;4954699;28;2045;-76
2023/05/24 07:59:03;;;;;;;;;;;;;;;14.98;61.20;100823.25;4942522;28;1619;-74
2023/05/24 08:01:30;;;;;;;;;;;;;;;14.99;61.29;100832.22;4942851;28;1723;-74
2023/05/24 08:03:56;;;;;;;;;;;;;;;15.00;61.04;100828.47;4954027;28;1606;-75
2023/05/24 08:06:23;;;;;;;;;;;;;;;15.01;61.20;100832.00;4956123;28;2046;-74
2023/05/24 08:08:50;;;;;;;;;;;;;;;14.99;61.12;100821.38;4961066;28;1969;-73
2023/05/24 08:11:16;;;;;;;;;;;;;;;15.01;61.09;100827.38;4953186;28;1777;-75
2023/05/24 08:13:43;;;;;;;;;;;;;;;15.04;61.04;100826.91;4954988;28;1677;-74
2023/05/24 08:16:09;;;;;;;;;;;;;;;15.03;61.09;100832.53;4954614;28;1654;-73
2023/05/24 08:18:36;;;;;;;;;;;;;;;15.04;61.04;100837.75;4947848;28;4499;-76
2023/05/24 08:21:03;;;;;;;;;;;;;;;15.02;61.25;100837.16;4954491;28;1686;-76
2023/05/24 08:23:29;;;;;;;;;;;;;;;15.04;60.96;100840.47;4954841;28;3590;-76
2023/05/24 08:25:56;;;;;;;;;;;;;;;15.05;61.03;100839.38;4951723;28;1775;-76
2023/05/24 08:28:22;;;;;;;;;;;;;;;15.07;61.02;100841.88;4940779;28;1914;-76
2023/05/24 08:30:49;;;;;;;;;;;;;;;15.08;61.12;100840.78;4954375;28;1646;-76
2023/05/24 08:33:16;;;;;;;;;;;;;;;15.07;61.02;100836.44;4952717;28;1601;-74
2023/05/24 08:35:42;;;;;;;;;;;;;;;15.07;60.95;100844.56;4949309;28;3111;-75
2023/05/24 08:38:09;;;;;;;;;;;;;;;15.10;60.87;100835.97;4945165;28;1921;-75
2023/05/24 08:40:35;;;;;;;;;;;;;;;15.11;61.01;100837.59;4956808;28;1636;-74
2023/05/24 08:43:02;;;;;;;;;;;;;;;15.11;60.90;100835.69;4939939;28;1687;-76
2023/05/24 08:45:28;;;;;;;;;;;;;;;15.14;60.91;100828.97;4964679;28;2069;-77
2023/05/24 08:47:55;;;;;;;;;;;;;;;15.08;61.02;100830.75;4954688;28;1903;-75
2023/05/24 08:50:22;;;;;;;;;;;;;;;15.09;61.04;100831.56;4957069;28;2088;-74
2023/05/24 08:52:48;;;;;;;;;;;;;;;15.14;60.93;100834.38;4968172;28;1969;-74
2023/05/24 08:55:15;;;;;;;;;;;;;;;15.14;60.93;100828.97;4971743;28;1569;-76
2023/05/24 08:57:41;;;;;;;;;;;;;;;15.12;61.22;100828.41;4954879;28;1076;-73
2023/05/24 09:00:10;;;;;;;;;;;;;;;15.10;61.08;100830.53;4966701;28;1718;-75
2023/05/24 09:02:37;;;;;;;;;;;;;;;14.73;61.10;100766.63;4952296;28;1607;-75
2023/05/24 09:05:04;;;;;;;;;;;;;;;15.08;60.92;100821.81;4954205;28;1658;-73
2023/05/24 09:07:30;;;;;;;;;;;;;;;15.11;60.82;100818.59;4952127;28;1942;-74
2023/05/24 09:09:57;;;;;;;;;;;;;;;15.13;60.83;100820.00;4962094;28;1580;-73
2023/05/24 09:12:23;;;;;;;;;;;;;;;15.13;60.96;100811.06;4952927;28;1633;-77
2023/05/24 09:14:50;;;;;;;;;;;;;;;15.12;60.95;100821.09;4952351;28;2133;-76
2023/05/24 09:17:17;;;;;;;;;;;;;;;15.15;60.74;100811.63;4955953;28;1651;-75
2023/05/24 09:19:44;;;;;;;;;;;;;;;15.16;60.72;100821.41;4957037;28;1716;-74
2023/05/24 09:22:11;;;;;;;;;;;;;;;15.14;60.90;100815.41;4955207;28;1969;-74
2023/05/24 09:24:37;;;;;;;;;;;;;;;15.17;60.93;100814.91;4970247;28;1198;-74
2023/05/24 09:27:04;;;;;;;;;;;;;;;15.18;60.97;100811.97;4960843;28;1974;-74
2023/05/24 09:29:30;;;;;;;;;;;;;;;15.16;60.97;100810.56;4970424;28;1016;-78
2023/05/24 09:31:57;;;;;;;;;;;;;;;15.17;60.92;100813.00;4971101;28;1530;-75
2023/05/24 09:34:24;;;;;;;;;;;;;;;15.18;61.00;100811.16;4952392;28;1994;-74
2023/05/24 09:36:50;;;;;;;;;;;;;;;15.16;61.07;100808.66;4954354;28;1462;-75
2023/05/24 09:39:17;;;;;;;;;;;;;;;15.16;61.09;100810.56;4959430;28;1689;-74
2023/05/24 09:41:43;;;;;;;;;;;;;;;15.16;61.15;100807.84;4954548;28;1781;-74
2023/05/24 09:44:10;;;;;;;;;;;;;;;15.18;61.12;100803.84;4960604;28;1835;-74
2023/05/24 09:46:37;;;;;;;;;;;;;;;15.17;61.22;100806.78;4956229;28;1717;-74
2023/05/24 09:49:05;;;;;;;;;;;;;;;15.16;61.26;100800.53;4955840;28;1919;-73
2023/05/24 09:51:31;;;;;;;;;;;;;;;15.17;61.25;100794.03;4960511;28;1682;-73
2023/05/24 09:53:58;;;;;;;;;;;;;;;15.18;61.28;100789.44;4968581;28;1626;-75
2023/05/24 09:56:25;;;;;;;;;;;;;;;15.18;61.39;100792.16;4955531;28;1590;-75
2023/05/24 09:58:52;;;;;;;;;;;;;;;15.19;61.35;100786.47;4958124;28;1748;-75
2023/05/24 10:01:19;;;;;;;;;;;;;;;15.18;61.36;100787.56;4954966;28;3643;-75
2023/05/24 10:03:46;;;;;;;;;;;;;;;15.20;61.47;100790.00;4937612;28;3336;-75
2023/05/24 10:06:12;;;;;;;;;;;;;;;15.21;61.51;100780.81;4961479;28;2560;-76
2023/05/24 10:08:39;;;;;;;;;;;;;;;15.24;61.51;100780.31;4970749;28;1977;-75
2023/05/24 10:11:05;;;;;;;;;;;;;;;15.23;61.42;100784.09;4960756;28;1377;-75
2023/05/24 10:13:32;;;;;;;;;;;;;;;15.23;61.41;100778.66;4970812;28;1093;-75
2023/05/24 10:15:58;;;;;;;;;;;;;;;15.25;61.30;100778.44;4970325;28;1191;-75
2023/05/24 10:18:25;;;;;;;;;;;;;;;15.24;61.40;100776.81;4969281;28;2553;-75
2023/05/24 10:20:51;;;;;;;;;;;;;;;15.23;61.46;100773.25;4968239;28;1929;-73
2023/05/24 10:23:18;;;;;;;;;;;;;;;15.24;61.53;100763.22;4952602;28;1637;-74
2023/05/24 10:25:45;;;;;;;;;;;;;;;15.27;61.38;100770.88;4952226;28;1849;-74
2023/05/24 10:28:12;;;;;;;;;;;;;;;15.26;61.59;100764.59;4952634;28;1910;-74
2023/05/24 10:30:39;;;;;;;;;;;;;;;15.26;61.54;100775.47;4951889;28;1658;-74
2023/05/24 10:33:06;;;;;;;;;;;;;;;15.27;61.69;100760.84;4951980;28;1929;-75
2023/05/24 10:35:36;;;;;;;;;;;;;;;15.28;61.68;100751.63;4955452;28;2006;-76
2023/05/24 10:38:03;;;;;;;;;;;;;;;15.29;61.75;100750.53;4939314;28;1670;-74
2023/05/24 10:40:29;;;;;;;;;;;;;;;15.30;61.63;100745.97;4950391;28;1648;-74
2023/05/24 10:42:56;;;;;;;;;;;;;;;15.31;61.85;100759.28;4944478;28;1899;-73
2023/05/24 10:45:22;;;;;;;;;;;;;;;15.33;61.74;100740.88;4956534;28;1673;-73
2023/05/24 10:47:49;;;;;;;;;;;;;;;15.33;61.90;100748.19;4954853;28;4538;-74
2023/05/24 10:50:15;;;;;;;;;;;;;;;15.32;61.97;100744.63;4955478;28;2912;-74
2023/05/24 10:52:42;;;;;;;;;;;;;;;15.37;61.66;100743.91;4957264;28;1660;-76
2023/05/24 10:55:08;;;;;;;;;;;;;;;15.36;61.66;100742.25;4955912;28;3078;-73
2023/05/24 10:57:35;;;;;;;;;;;;;;;15.35;61.63;100744.16;4940073;28;1647;-74
2023/05/24 11:00:02;;;;;;;;;;;;;;;15.38;61.80;100737.41;4960215;28;1624;-73
2023/05/24 11:02:28;;;;;;;;;;;;;;;15.36;61.92;100743.09;4956066;28;1739;-73
2023/05/24 11:04:55;;;;;;;;;;;;;;;15.36;61.96;100740.38;4942076;28;2018;-74
2023/05/24 11:07:22;;;;;;;;;;;;;;;15.37;61.91;100736.56;4955051;28;2942;-74
2023/05/24 11:09:54;;;;;;;;;;;;;;;15.38;62.03;100735.53;4955980;28;2023;-74
2023/05/24 11:12:21;;;;;;;;;;;;;;;15.40;62.04;100733.38;4954613;28;1646;-74
2023/05/24 11:14:48;;;;;;;;;;;;;;;15.40;62.10;100736.09;4957455;28;1594;-73
2023/05/24 11:17:15;;;;;;;;;;;;;;;15.42;62.04;100731.25;4957265;28;1696;-74
2023/05/24 11:19:41;;;;;;;;;;;;;;;15.42;62.07;100742.09;4947788;28;1999;-73
2023/05/24 11:22:08;;;;;;;;;;;;;;;15.43;62.10;100745.63;4972091;28;1575;-74
2023/05/24 11:24:35;;;;;;;;;;;;;;;15.44;62.11;100744.53;4973336;28;1036;-74
2023/05/24 11:27:02;;;;;;;;;;;;;;;15.45;62.08;100740.78;4971990;28;1655;-75
2023/05/24 11:29:29;;;;;;;;;;;;;;;15.46;62.23;100742.41;4973950;28;1976;-74
2023/05/24 11:31:56;;;;;;;;;;;;;;;15.46;62.14;100742.41;4955318;28;1495;-74
2023/05/24 11:34:23;;;;;;;;;;;;;;;15.49;62.23;100749.25;4953631;28;1960;-73
2023/05/24 11:36:50;;;;;;;;;;;;;;;15.49;62.27;100732.97;4956764;28;1626;-74
2023/05/24 11:39:17;;;;;;;;;;;;;;;15.50;62.27;100726.44;4955320;28;1668;-75
2023/05/24 11:41:43;;;;;;;;;;;;;;;15.50;62.17;100721.03;4954109;28;1634;-75
2023/05/24 11:44:10;;;;;;;;;;;;;;;15.51;62.23;100723.50;4942772;28;1686;-73
2023/05/24 11:46:37;;;;;;;;;;;;;;;15.51;62.43;100730.81;4960998;28;2002;-74
2023/05/24 11:49:04;;;;;;;;;;;;;;;15.52;62.34;100713.47;4951614;28;2395;-74
2023/05/24 11:51:31;;;;;;;;;;;;;;;15.52;62.46;100719.72;4956684;28;1630;-74
2023/05/24 11:53:57;;;;;;;;;;;;;;;15.54;62.38;100714.84;4953474;28;1786;-73
2023/05/24 11:56:24;;;;;;;;;;;;;;;15.55;62.43;100713.78;4953600;28;1709;-73
2023/05/24 11:58:50;;;;;;;;;;;;;;;15.21;62.34;100650.59;4939230;28;1681;-75
2023/05/24 12:01:17;;;;;;;;;;;;;;;15.57;62.37;100713.53;4955851;28;1745;-73
2023/05/24 12:03:43;;;;;;;;;;;;;;;15.58;62.45;100715.19;4937566;28;1918;-73
2023/05/24 12:06:10;;;;;;;;;;;;;;;15.59;62.51;100709.50;4950472;28;1978;-75
2023/05/24 12:08:36;;;;;;;;;;;;;;;15.58;62.49;100705.13;4957222;28;1958;-75
2023/05/24 12:11:04;;;;;;;;;;;;;;;15.59;62.53;100709.50;4971599;28;1381;-74
2023/05/24 12:13:30;;;;;;;;;;;;;;;15.60;62.63;100719.28;4953666;28;1910;-77
2023/05/24 12:15:57;;;;;;;;;;;;;;;15.61;62.60;100720.09;4954851;28;1749;-76
2023/05/24 12:18:24;;;;;;;;;;;;;;;15.62;62.59;100709.00;4954257;28;1803;-75
2023/05/24 12:20:51;;;;;;;;;;;;;;;15.63;62.65;100704.41;4961198;28;2009;-73
2023/05/24 12:23:17;;;;;;;;;;;;;;;15.63;62.68;100705.22;4953223;28;1660;-74
2023/05/24 12:25:44;;;;;;;;;;;;;;;15.64;62.68;100696.00;4951951;28;1653;-75
2023/05/24 12:28:10;;;;;;;;;;;;;;;15.65;62.63;100700.38;4971226;28;1968;-74
2023/05/24 12:30:41;;;;;;;;;;;;;;;15.65;62.68;100697.66;4970128;28;3550;-73
2023/05/24 12:33:08;;;;;;;;;;;;;;;15.67;62.78;100694.69;4972352;28;3587;-75
2023/05/24 12:35:35;;;;;;;;;;;;;;;15.66;62.80;100702.00;4971003;28;2005;-76
2023/05/24 12:38:01;;;;;;;;;;;;;;;15.67;62.88;100697.38;4970387;28;2768;-75
2023/05/24 12:40:28;;;;;;;;;;;;;;;15.69;62.81;100697.19;4971816;28;1025;-74
2023/05/24 12:42:55;;;;;;;;;;;;;;;15.70;62.87;100701.53;4971198;28;1523;-76
2023/05/24 12:45:24;;;;;;;;;;;;;;;15.72;62.84;100693.97;4961698;28;1653;-74